sensor_id;sensor_type;location;lat;lon;timestamp;temperature;humidity
2030;DHT22;1020;48.854;8.830;2023-07-09T00:00:38;21.80;99.90
2030;DHT22;1020;48.854;8.830;2023-07-09T00:03:05;21.70;99.90
2030;DHT22;1020;48.854;8.830;2023-07-09T00:05:32;21.60;99.90
2030;DHT22;1020;48.854;8.830;2023-07-09T00:07:59;21.60;99.90
2030;DHT22;1020;48.854;8.830;2023-07-09T00:10:26;21.50;99.90
2030;DHT22;1020;48.854;8.830;2023-07-09T00:12:53;21.50;99.90
2030;DHT22;1020;48.854;8.830;2023-07-09T00:15:21;21.50;99.90
2030;DHT22;1020;48.854;8.830;2023-07-09T00:17:48;21.30;1.00
2030;DHT22;1020;48.854;8.830;2023-07-09T00:20:17;21.50;1.00
2030;DHT22;1020;48.854;8.830;2023-07-09T00:22:44;21.20;1.00
2030;DHT22;1020;48.854;8.830;2023-07-09T00:25:18;21.20;1.00
2030;DHT22;1020;48.854;8.830;2023-07-09T00:27:45;21.10;1.00
2030;DHT22;1020;48.854;8.830;2023-07-09T00:30:17;21.20;1.00
2030;DHT22;1020;48.854;8.830;2023-07-09T00:32:45;21.20;1.00
2030;DHT22;1020;48.854;8.830;2023-07-09T00:35:12;21.20;1.00
2030;DHT22;1020;48.854;8.830;2023-07-09T00:37:41;21.20;1.00
2030;DHT22;1020;48.854;8.830;2023-07-09T00:40:13;21.10;1.00
2030;DHT22;1020;48.854;8.830;2023-07-09T00:42:44;21.10;1.00
2030;DHT22;1020;48.854;8.830;2023-07-09T00:45:18;21.10;1.00
2030;DHT22;1020;48.854;8.830;2023-07-09T00:47:49;21.10;1.00
2030;DHT22;1020;48.854;8.830;2023-07-09T00:50:30;21.00;1.00
2030;DHT22;1020;48.854;8.830;2023-07-09T00:53:02;20.70;1.00
2030;DHT22;1020;48.854;8.830;2023-07-09T00:55:36;20.90;1.00
2030;DHT22;1020;48.854;8.830;2023-07-09T00:58:07;21.00;1.00
2030;DHT22;1020;48.854;8.830;2023-07-09T01:00:39;20.90;1.00
2030;DHT22;1020;48.854;8.830;2023-07-09T01:03:18;20.80;1.00
2030;DHT22;1020;48.854;8.830;2023-07-09T01:05:47;20.80;1.00
2030;DHT22;1020;48.854;8.830;2023-07-09T01:08:18;20.80;1.00
2030;DHT22;1020;48.854;8.830;2023-07-09T01:10:45;20.70;1.00
2030;DHT22;1020;48.854;8.830;2023-07-09T01:13:12;20.80;1.00
2030;DHT22;1020;48.854;8.830;2023-07-09T01:15:40;20.80;1.00
2030;DHT22;1020;48.854;8.830;2023-07-09T01:18:07;20.80;1.00
2030;DHT22;1020;48.854;8.830;2023-07-09T01:20:38;20.80;1.00
2030;DHT22;1020;48.854;8.830;2023-07-09T01:23:07;20.80;1.00
2030;DHT22;1020;48.854;8.830;2023-07-09T01:25:37;20.80;1.00
2030;DHT22;1020;48.854;8.830;2023-07-09T01:28:05;20.80;1.00
2030;DHT22;1020;48.854;8.830;2023-07-09T01:30:35;20.80;1.00
2030;DHT22;1020;48.854;8.830;2023-07-09T01:33:03;20.70;1.00
2030;DHT22;1020;48.854;8.830;2023-07-09T01:35:33;20.70;1.00
2030;DHT22;1020;48.854;8.830;2023-07-09T01:38:00;20.70;1.00
2030;DHT22;1020;48.854;8.830;2023-07-09T01:40:28;20.70;1.00
2030;DHT22;1020;48.854;8.830;2023-07-09T01:42:57;21.70;1.00
2030;DHT22;1020;48.854;8.830;2023-07-09T01:45:25;20.70;1.00
2030;DHT22;1020;48.854;8.830;2023-07-09T01:47:52;20.60;1.00
2030;DHT22;1020;48.854;8.830;2023-07-09T01:50:21;20.60;1.00
2030;DHT22;1020;48.854;8.830;2023-07-09T01:52:50;20.60;1.00
2030;DHT22;1020;48.854;8.830;2023-07-09T01:55:17;20.60;1.00
2030;DHT22;1020;48.854;8.830;2023-07-09T01:57:46;20.60;1.00
2030;DHT22;1020;48.854;8.830;2023-07-09T02:00:15;20.60;1.00
2030;DHT22;1020;48.854;8.830;2023-07-09T02:02:44;20.50;1.00
2030;DHT22;1020;48.854;8.830;2023-07-09T02:05:14;20.50;1.00
2030;DHT22;1020;48.854;8.830;2023-07-09T02:07:41;20.50;1.00
2030;DHT22;1020;48.854;8.830;2023-07-09T02:10:09;20.40;1.00
2030;DHT22;1020;48.854;8.830;2023-07-09T02:12:36;20.40;1.00
2030;DHT22;1020;48.854;8.830;2023-07-09T02:15:06;20.50;1.00
2030;DHT22;1020;48.854;8.830;2023-07-09T02:17:33;20.40;1.00
2030;DHT22;1020;48.854;8.830;2023-07-09T02:19:59;20.40;1.00
2030;DHT22;1020;48.854;8.830;2023-07-09T02:22:26;20.40;1.00
2030;DHT22;1020;48.854;8.830;2023-07-09T02:24:53;20.40;1.00
2030;DHT22;1020;48.854;8.830;2023-07-09T02:27:20;20.40;1.00
2030;DHT22;1020;48.854;8.830;2023-07-09T02:29:47;20.40;1.00
2030;DHT22;1020;48.854;8.830;2023-07-09T02:32:18;20.30;1.00
2030;DHT22;1020;48.854;8.830;2023-07-09T02:34:45;20.30;1.00
2030;DHT22;1020;48.854;8.830;2023-07-09T02:37:15;20.30;1.00
2030;DHT22;1020;48.854;8.830;2023-07-09T02:39:43;20.20;17.90
2030;DHT22;1020;48.854;8.830;2023-07-09T02:42:11;20.20;31.60
2030;DHT22;1020;48.854;8.830;2023-07-09T02:44:39;20.20;39.20
2030;DHT22;1020;48.854;8.830;2023-07-09T02:47:06;20.20;48.90
2030;DHT22;1020;48.854;8.830;2023-07-09T02:49:35;20.10;82.40
2030;DHT22;1020;48.854;8.830;2023-07-09T02:52:03;20.10;99.90
2030;DHT22;1020;48.854;8.830;2023-07-09T02:54:30;20.00;99.90
2030;DHT22;1020;48.854;8.830;2023-07-09T02:56:57;20.00;99.90
2030;DHT22;1020;48.854;8.830;2023-07-09T02:59:23;19.80;99.90
2030;DHT22;1020;48.854;8.830;2023-07-09T03:01:52;19.80;99.90
2030;DHT22;1020;48.854;8.830;2023-07-09T03:04:19;19.70;99.90
2030;DHT22;1020;48.854;8.830;2023-07-09T03:06:48;19.70;99.90
2030;DHT22;1020;48.854;8.830;2023-07-09T03:09:14;19.60;1.00
2030;DHT22;1020;48.854;8.830;2023-07-09T03:11:41;19.50;1.00
2030;DHT22;1020;48.854;8.830;2023-07-09T03:14:08;19.50;1.00
2030;DHT22;1020;48.854;8.830;2023-07-09T03:16:35;19.50;1.00
2030;DHT22;1020;48.854;8.830;2023-07-09T03:19:03;19.40;1.00
2030;DHT22;1020;48.854;8.830;2023-07-09T03:21:31;19.40;1.00
2030;DHT22;1020;48.854;8.830;2023-07-09T03:23:59;19.40;1.00
2030;DHT22;1020;48.854;8.830;2023-07-09T03:26:26;19.40;1.00
2030;DHT22;1020;48.854;8.830;2023-07-09T03:28:53;19.40;1.00
2030;DHT22;1020;48.854;8.830;2023-07-09T03:31:21;19.40;1.00
2030;DHT22;1020;48.854;8.830;2023-07-09T03:33:48;19.40;1.00
2030;DHT22;1020;48.854;8.830;2023-07-09T03:36:15;19.40;1.00
2030;DHT22;1020;48.854;8.830;2023-07-09T03:38:42;19.40;1.00
2030;DHT22;1020;48.854;8.830;2023-07-09T03:41:10;19.40;1.00
2030;DHT22;1020;48.854;8.830;2023-07-09T03:43:37;19.30;26.00
2030;DHT22;1020;48.854;8.830;2023-07-09T03:46:04;19.30;99.90
2030;DHT22;1020;48.854;8.830;2023-07-09T03:48:31;19.30;99.90
2030;DHT22;1020;48.854;8.830;2023-07-09T03:50:58;19.30;99.90
2030;DHT22;1020;48.854;8.830;2023-07-09T03:53:24;19.30;99.90
2030;DHT22;1020;48.854;8.830;2023-07-09T03:55:53;19.30;99.90
2030;DHT22;1020;48.854;8.830;2023-07-09T03:58:23;19.30;99.90
2030;DHT22;1020;48.854;8.830;2023-07-09T04:00:50;19.30;99.90
2030;DHT22;1020;48.854;8.830;2023-07-09T04:03:16;19.30;99.90
2030;DHT22;1020;48.854;8.830;2023-07-09T04:05:43;19.30;99.90
2030;DHT22;1020;48.854;8.830;2023-07-09T04:08:10;19.30;99.90
2030;DHT22;1020;48.854;8.830;2023-07-09T04:10:37;19.40;99.90
2030;DHT22;1020;48.854;8.830;2023-07-09T04:13:04;19.40;99.90
2030;DHT22;1020;48.854;8.830;2023-07-09T04:15:32;19.40;99.90
2030;DHT22;1020;48.854;8.830;2023-07-09T04:17:59;19.40;96.70
2030;DHT22;1020;48.854;8.830;2023-07-09T04:20:25;19.50;94.50
2030;DHT22;1020;48.854;8.830;2023-07-09T04:22:53;19.50;55.30
2030;DHT22;1020;48.854;8.830;2023-07-09T04:25:20;19.50;83.90
2030;DHT22;1020;48.854;8.830;2023-07-09T04:27:47;19.40;99.90
2030;DHT22;1020;48.854;8.830;2023-07-09T04:30:15;19.40;99.90
2030;DHT22;1020;48.854;8.830;2023-07-09T04:32:45;19.40;99.90
2030;DHT22;1020;48.854;8.830;2023-07-09T04:35:14;19.40;99.90
2030;DHT22;1020;48.854;8.830;2023-07-09T04:37:41;19.40;99.90
2030;DHT22;1020;48.854;8.830;2023-07-09T04:40:09;19.40;99.90
2030;DHT22;1020;48.854;8.830;2023-07-09T04:42:38;19.40;99.90
2030;DHT22;1020;48.854;8.830;2023-07-09T04:45:07;19.70;99.90
2030;DHT22;1020;48.854;8.830;2023-07-09T04:47:34;19.50;99.90
2030;DHT22;1020;48.854;8.830;2023-07-09T04:50:03;19.60;75.00
2030;DHT22;1020;48.854;8.830;2023-07-09T04:52:30;19.70;1.00
2030;DHT22;1020;48.854;8.830;2023-07-09T04:54:57;19.80;1.00
2030;DHT22;1020;48.854;8.830;2023-07-09T04:57:25;19.80;1.00
2030;DHT22;1020;48.854;8.830;2023-07-09T04:59:52;19.90;1.00
2030;DHT22;1020;48.854;8.830;2023-07-09T05:02:18;20.10;1.00
2030;DHT22;1020;48.854;8.830;2023-07-09T05:04:45;20.30;1.00
2030;DHT22;1020;48.854;8.830;2023-07-09T05:07:13;20.50;99.90
2030;DHT22;1020;48.854;8.830;2023-07-09T05:09:40;20.60;99.90
2030;DHT22;1020;48.854;8.830;2023-07-09T05:12:08;20.70;99.90
2030;DHT22;1020;48.854;8.830;2023-07-09T05:14:35;20.80;99.90
2030;DHT22;1020;48.854;8.830;2023-07-09T05:17:01;21.00;99.90
2030;DHT22;1020;48.854;8.830;2023-07-09T05:19:29;20.10;99.90
2030;DHT22;1020;48.854;8.830;2023-07-09T05:21:56;21.40;99.90
2030;DHT22;1020;48.854;8.830;2023-07-09T05:24:24;21.50;99.90
2030;DHT22;1020;48.854;8.830;2023-07-09T05:26:51;21.70;28.30
2030;DHT22;1020;48.854;8.830;2023-07-09T05:29:18;21.70;1.00
2030;DHT22;1020;48.854;8.830;2023-07-09T05:31:45;21.80;1.00
2030;DHT22;1020;48.854;8.830;2023-07-09T05:34:11;21.90;1.00
2030;DHT22;1020;48.854;8.830;2023-07-09T05:36:39;22.00;1.00
2030;DHT22;1020;48.854;8.830;2023-07-09T05:39:05;22.10;1.00
2030;DHT22;1020;48.854;8.830;2023-07-09T05:41:34;22.10;1.00
2030;DHT22;1020;48.854;8.830;2023-07-09T05:44:00;22.20;1.00
2030;DHT22;1020;48.854;8.830;2023-07-09T05:46:27;22.30;1.00
2030;DHT22;1020;48.854;8.830;2023-07-09T05:48:54;22.40;1.00
2030;DHT22;1020;48.854;8.830;2023-07-09T05:51:21;22.60;1.00
2030;DHT22;1020;48.854;8.830;2023-07-09T05:53:49;22.70;1.00
2030;DHT22;1020;48.854;8.830;2023-07-09T05:56:16;22.80;1.00
2030;DHT22;1020;48.854;8.830;2023-07-09T05:58:44;22.90;1.00
2030;DHT22;1020;48.854;8.830;2023-07-09T06:01:11;23.10;1.00
2030;DHT22;1020;48.854;8.830;2023-07-09T06:03:38;23.10;1.00
2030;DHT22;1020;48.854;8.830;2023-07-09T06:06:05;23.30;1.00
2030;DHT22;1020;48.854;8.830;2023-07-09T06:08:32;23.50;1.00
2030;DHT22;1020;48.854;8.830;2023-07-09T06:11:01;23.60;1.00
2030;DHT22;1020;48.854;8.830;2023-07-09T06:13:29;23.80;1.00
2030;DHT22;1020;48.854;8.830;2023-07-09T06:15:58;24.00;1.00
2030;DHT22;1020;48.854;8.830;2023-07-09T06:18:26;24.20;1.00
2030;DHT22;1020;48.854;8.830;2023-07-09T06:20:56;24.30;99.90
2030;DHT22;1020;48.854;8.830;2023-07-09T06:23:24;24.40;99.90
2030;DHT22;1020;48.854;8.830;2023-07-09T06:25:51;24.50;99.90
2030;DHT22;1020;48.854;8.830;2023-07-09T06:28:20;24.70;99.90
2030;DHT22;1020;48.854;8.830;2023-07-09T06:30:48;24.90;99.90
2030;DHT22;1020;48.854;8.830;2023-07-09T06:33:17;25.10;99.90
2030;DHT22;1020;48.854;8.830;2023-07-09T06:35:46;25.40;99.90
2030;DHT22;1020;48.854;8.830;2023-07-09T06:38:13;25.60;99.90
2030;DHT22;1020;48.854;8.830;2023-07-09T06:40:40;25.90;99.90
2030;DHT22;1020;48.854;8.830;2023-07-09T06:43:08;26.20;99.90
2030;DHT22;1020;48.854;8.830;2023-07-09T06:45:35;26.40;99.90
2030;DHT22;1020;48.854;8.830;2023-07-09T06:48:02;26.50;99.90
2030;DHT22;1020;48.854;8.830;2023-07-09T06:50:33;26.80;99.90
2030;DHT22;1020;48.854;8.830;2023-07-09T06:53:00;27.00;99.90
2030;DHT22;1020;48.854;8.830;2023-07-09T06:55:26;27.30;99.90
2030;DHT22;1020;48.854;8.830;2023-07-09T06:57:53;27.40;99.90
2030;DHT22;1020;48.854;8.830;2023-07-09T07:00:20;27.70;99.90
2030;DHT22;1020;48.854;8.830;2023-07-09T07:02:47;27.90;99.90
2030;DHT22;1020;48.854;8.830;2023-07-09T07:05:14;28.10;99.90
2030;DHT22;1020;48.854;8.830;2023-07-09T07:07:42;28.20;99.90
2030;DHT22;1020;48.854;8.830;2023-07-09T07:10:09;28.30;99.90
2030;DHT22;1020;48.854;8.830;2023-07-09T07:12:42;28.60;99.90
2030;DHT22;1020;48.854;8.830;2023-07-09T07:15:10;28.70;99.90
2030;DHT22;1020;48.854;8.830;2023-07-09T07:17:37;28.90;99.90
2030;DHT22;1020;48.854;8.830;2023-07-09T07:20:05;29.30;99.90
2030;DHT22;1020;48.854;8.830;2023-07-09T07:22:32;29.50;99.90
2030;DHT22;1020;48.854;8.830;2023-07-09T07:25:00;29.90;99.90
2030;DHT22;1020;48.854;8.830;2023-07-09T07:27:27;30.60;99.90
2030;DHT22;1020;48.854;8.830;2023-07-09T07:29:53;31.20;99.90
2030;DHT22;1020;48.854;8.830;2023-07-09T07:32:20;31.60;99.90
2030;DHT22;1020;48.854;8.830;2023-07-09T07:34:47;32.00;99.90
2030;DHT22;1020;48.854;8.830;2023-07-09T07:37:14;31.80;99.90
2030;DHT22;1020;48.854;8.830;2023-07-09T07:39:41;31.90;99.90
2030;DHT22;1020;48.854;8.830;2023-07-09T07:42:09;32.20;99.90
2030;DHT22;1020;48.854;8.830;2023-07-09T07:44:36;32.80;99.90
2030;DHT22;1020;48.854;8.830;2023-07-09T07:47:04;33.60;99.90
2030;DHT22;1020;48.854;8.830;2023-07-09T07:49:31;33.90;99.90
2030;DHT22;1020;48.854;8.830;2023-07-09T07:51:58;33.80;99.90
2030;DHT22;1020;48.854;8.830;2023-07-09T07:54:28;34.30;99.90
2030;DHT22;1020;48.854;8.830;2023-07-09T07:56:55;35.60;99.90
2030;DHT22;1020;48.854;8.830;2023-07-09T07:59:23;37.30;99.90
2030;DHT22;1020;48.854;8.830;2023-07-09T08:01:50;36.90;99.90
2030;DHT22;1020;48.854;8.830;2023-07-09T08:04:17;37.60;99.90
2030;DHT22;1020;48.854;8.830;2023-07-09T08:06:44;38.60;99.90
2030;DHT22;1020;48.854;8.830;2023-07-09T08:09:10;39.20;99.90
2030;DHT22;1020;48.854;8.830;2023-07-09T08:11:37;40.60;99.90
2030;DHT22;1020;48.854;8.830;2023-07-09T08:14:04;40.70;99.90
2030;DHT22;1020;48.854;8.830;2023-07-09T08:16:33;41.40;99.90
2030;DHT22;1020;48.854;8.830;2023-07-09T08:18:59;41.90;99.90
2030;DHT22;1020;48.854;8.830;2023-07-09T08:21:26;40.20;99.90
2030;DHT22;1020;48.854;8.830;2023-07-09T08:23:53;39.70;99.90
2030;DHT22;1020;48.854;8.830;2023-07-09T08:26:20;40.40;99.90
2030;DHT22;1020;48.854;8.830;2023-07-09T08:28:46;40.80;99.90
2030;DHT22;1020;48.854;8.830;2023-07-09T08:31:13;41.00;99.90
2030;DHT22;1020;48.854;8.830;2023-07-09T08:33:41;41.70;99.90
2030;DHT22;1020;48.854;8.830;2023-07-09T08:36:08;43.30;99.90
2030;DHT22;1020;48.854;8.830;2023-07-09T08:38:35;44.10;99.90
2030;DHT22;1020;48.854;8.830;2023-07-09T08:41:08;45.00;99.90
2030;DHT22;1020;48.854;8.830;2023-07-09T08:43:48;45.50;99.90
2030;DHT22;1020;48.854;8.830;2023-07-09T08:46:21;44.80;99.90
2030;DHT22;1020;48.854;8.830;2023-07-09T08:48:54;44.80;99.90
2030;DHT22;1020;48.854;8.830;2023-07-09T08:51:28;43.80;99.90
2030;DHT22;1020;48.854;8.830;2023-07-09T08:53:58;43.70;99.90
2030;DHT22;1020;48.854;8.830;2023-07-09T08:56:26;43.50;99.90
2030;DHT22;1020;48.854;8.830;2023-07-09T08:58:55;43.50;99.90
2030;DHT22;1020;48.854;8.830;2023-07-09T09:01:25;43.70;99.90
2030;DHT22;1020;48.854;8.830;2023-07-09T09:03:59;42.60;99.90
2030;DHT22;1020;48.854;8.830;2023-07-09T09:06:29;42.70;99.90
2030;DHT22;1020;48.854;8.830;2023-07-09T09:09:03;41.30;99.90
2030;DHT22;1020;48.854;8.830;2023-07-09T09:11:39;39.40;99.90
2030;DHT22;1020;48.854;8.830;2023-07-09T09:14:30;38.70;99.90
2030;DHT22;1020;48.854;8.830;2023-07-09T09:16:57;39.40;99.90
2030;DHT22;1020;48.854;8.830;2023-07-09T09:19:29;40.10;99.90
2030;DHT22;1020;48.854;8.830;2023-07-09T09:22:04;39.90;99.90
2030;DHT22;1020;48.854;8.830;2023-07-09T09:24:35;41.10;99.90
2030;DHT22;1020;48.854;8.830;2023-07-09T09:27:03;42.30;99.90
2030;DHT22;1020;48.854;8.830;2023-07-09T09:29:31;42.00;99.90
2030;DHT22;1020;48.854;8.830;2023-07-09T09:32:00;41.20;99.90
2030;DHT22;1020;48.854;8.830;2023-07-09T09:34:30;40.00;99.90
2030;DHT22;1020;48.854;8.830;2023-07-09T09:36:58;39.00;99.90
2030;DHT22;1020;48.854;8.830;2023-07-09T09:39:26;38.00;99.90
2030;DHT22;1020;48.854;8.830;2023-07-09T09:41:54;37.20;99.90
2030;DHT22;1020;48.854;8.830;2023-07-09T09:44:25;37.70;99.90
2030;DHT22;1020;48.854;8.830;2023-07-09T09:46:55;37.30;99.90
2030;DHT22;1020;48.854;8.830;2023-07-09T09:49:22;37.90;99.90
2030;DHT22;1020;48.854;8.830;2023-07-09T09:51:50;37.70;99.90
2030;DHT22;1020;48.854;8.830;2023-07-09T09:54:19;37.20;99.90
2030;DHT22;1020;48.854;8.830;2023-07-09T09:56:48;38.10;99.90
2030;DHT22;1020;48.854;8.830;2023-07-09T09:59:21;37.30;99.90
2030;DHT22;1020;48.854;8.830;2023-07-09T10:01:57;36.50;99.90
2030;DHT22;1020;48.854;8.830;2023-07-09T10:04:24;36.40;99.90
2030;DHT22;1020;48.854;8.830;2023-07-09T10:06:55;35.80;99.90
2030;DHT22;1020;48.854;8.830;2023-07-09T10:09:29;35.80;99.90
2030;DHT22;1020;48.854;8.830;2023-07-09T10:12:08;35.60;99.90
2030;DHT22;1020;48.854;8.830;2023-07-09T10:14:44;35.90;99.90
2030;DHT22;1020;48.854;8.830;2023-07-09T10:17:19;35.80;99.90
2030;DHT22;1020;48.854;8.830;2023-07-09T10:19:51;35.60;99.90
2030;DHT22;1020;48.854;8.830;2023-07-09T10:22:28;35.60;99.90
2030;DHT22;1020;48.854;8.830;2023-07-09T10:25:02;36.80;99.90
2030;DHT22;1020;48.854;8.830;2023-07-09T10:27:40;37.50;99.90
2030;DHT22;1020;48.854;8.830;2023-07-09T10:30:30;37.00;99.90
2030;DHT22;1020;48.854;8.830;2023-07-09T10:33:08;36.40;99.90
2030;DHT22;1020;48.854;8.830;2023-07-09T10:35:38;36.20;99.90
2030;DHT22;1020;48.854;8.830;2023-07-09T10:38:19;35.80;99.90
2030;DHT22;1020;48.854;8.830;2023-07-09T10:40:49;35.80;99.90
2030;DHT22;1020;48.854;8.830;2023-07-09T10:43:21;36.40;99.90
2030;DHT22;1020;48.854;8.830;2023-07-09T10:45:54;37.10;99.90
2030;DHT22;1020;48.854;8.830;2023-07-09T10:48:32;37.40;99.90
2030;DHT22;1020;48.854;8.830;2023-07-09T10:51:00;37.90;99.90
2030;DHT22;1020;48.854;8.830;2023-07-09T10:53:33;37.80;99.90
2030;DHT22;1020;48.854;8.830;2023-07-09T10:56:07;37.90;99.90
2030;DHT22;1020;48.854;8.830;2023-07-09T10:58:39;38.80;99.90
2030;DHT22;1020;48.854;8.830;2023-07-09T11:01:12;38.90;99.90
2030;DHT22;1020;48.854;8.830;2023-07-09T11:03:43;38.50;99.90
2030;DHT22;1020;48.854;8.830;2023-07-09T11:06:18;39.00;99.90
2030;DHT22;1020;48.854;8.830;2023-07-09T11:08:50;38.00;99.90
2030;DHT22;1020;48.854;8.830;2023-07-09T11:11:26;37.60;99.90
2030;DHT22;1020;48.854;8.830;2023-07-09T11:13:58;37.60;99.90
2030;DHT22;1020;48.854;8.830;2023-07-09T11:16:29;38.30;99.90
2030;DHT22;1020;48.854;8.830;2023-07-09T11:19:00;39.40;99.90
2030;DHT22;1020;48.854;8.830;2023-07-09T11:21:28;40.70;99.90
2030;DHT22;1020;48.854;8.830;2023-07-09T11:23:58;40.80;99.90
2030;DHT22;1020;48.854;8.830;2023-07-09T11:26:27;40.80;99.90
2030;DHT22;1020;48.854;8.830;2023-07-09T11:29:05;41.80;99.90
2030;DHT22;1020;48.854;8.830;2023-07-09T11:31:35;41.00;99.10
2030;DHT22;1020;48.854;8.830;2023-07-09T11:34:08;41.30;98.80
2030;DHT22;1020;48.854;8.830;2023-07-09T11:36:46;41.40;97.10
2030;DHT22;1020;48.854;8.830;2023-07-09T11:39:20;40.10;93.80
2030;DHT22;1020;48.854;8.830;2023-07-09T11:41:47;40.00;94.50
2030;DHT22;1020;48.854;8.830;2023-07-09T11:44:17;40.90;94.60
2030;DHT22;1020;48.854;8.830;2023-07-09T11:47:13;40.10;92.80
2030;DHT22;1020;48.854;8.830;2023-07-09T11:49:49;39.90;93.60
2030;DHT22;1020;48.854;8.830;2023-07-09T11:52:22;38.50;90.30
2030;DHT22;1020;48.854;8.830;2023-07-09T11:54:52;39.20;93.50
2030;DHT22;1020;48.854;8.830;2023-07-09T11:57:19;39.30;92.80
2030;DHT22;1020;48.854;8.830;2023-07-09T11:59:46;39.10;92.10
2030;DHT22;1020;48.854;8.830;2023-07-09T12:02:16;38.30;90.50
2030;DHT22;1020;48.854;8.830;2023-07-09T12:04:44;38.00;90.90
2030;DHT22;1020;48.854;8.830;2023-07-09T12:07:15;38.80;92.90
2030;DHT22;1020;48.854;8.830;2023-07-09T12:09:46;38.30;91.40
2030;DHT22;1020;48.854;8.830;2023-07-09T12:12:19;38.50;91.60
2030;DHT22;1020;48.854;8.830;2023-07-09T12:14:47;40.50;95.10
2030;DHT22;1020;48.854;8.830;2023-07-09T12:17:13;40.40;92.40
2030;DHT22;1020;48.854;8.830;2023-07-09T12:19:40;40.30;91.60
2030;DHT22;1020;48.854;8.830;2023-07-09T12:22:12;40.30;91.20
2030;DHT22;1020;48.854;8.830;2023-07-09T12:24:43;39.90;90.60
2030;DHT22;1020;48.854;8.830;2023-07-09T12:27:26;40.00;88.50
2030;DHT22;1020;48.854;8.830;2023-07-09T12:29:56;40.60;88.50
2030;DHT22;1020;48.854;8.830;2023-07-09T12:32:23;40.90;88.10
2030;DHT22;1020;48.854;8.830;2023-07-09T12:34:53;39.80;81.70
2030;DHT22;1020;48.854;8.830;2023-07-09T12:37:21;39.30;80.80
2030;DHT22;1020;48.854;8.830;2023-07-09T12:39:49;39.70;83.90
2030;DHT22;1020;48.854;8.830;2023-07-09T12:42:20;40.00;83.60
2030;DHT22;1020;48.854;8.830;2023-07-09T12:44:50;39.50;81.30
2030;DHT22;1020;48.854;8.830;2023-07-09T12:47:18;40.80;86.40
2030;DHT22;1020;48.854;8.830;2023-07-09T12:49:46;42.00;86.50
2030;DHT22;1020;48.854;8.830;2023-07-09T12:52:19;41.90;81.00
2030;DHT22;1020;48.854;8.830;2023-07-09T12:54:56;40.60;75.10
2030;DHT22;1020;48.854;8.830;2023-07-09T12:57:23;40.70;75.20
2030;DHT22;1020;48.854;8.830;2023-07-09T12:59:51;39.70;68.50
2030;DHT22;1020;48.854;8.830;2023-07-09T13:02:21;39.80;68.90
2030;DHT22;1020;48.854;8.830;2023-07-09T13:04:49;39.90;67.90
2030;DHT22;1020;48.854;8.830;2023-07-09T13:07:29;39.60;64.30
2030;DHT22;1020;48.854;8.830;2023-07-09T13:09:57;39.30;62.70
2030;DHT22;1020;48.854;8.830;2023-07-09T13:12:31;38.80;60.70
2030;DHT22;1020;48.854;8.830;2023-07-09T13:15:00;39.50;64.00
2030;DHT22;1020;48.854;8.830;2023-07-09T13:17:29;39.90;64.40
2030;DHT22;1020;48.854;8.830;2023-07-09T13:19:56;41.50;66.70
2030;DHT22;1020;48.854;8.830;2023-07-09T13:22:23;42.00;65.20
2030;DHT22;1020;48.854;8.830;2023-07-09T13:24:51;40.60;59.10
2030;DHT22;1020;48.854;8.830;2023-07-09T13:27:17;39.80;58.00
2030;DHT22;1020;48.854;8.830;2023-07-09T13:29:44;39.40;57.30
2030;DHT22;1020;48.854;8.830;2023-07-09T13:32:14;39.10;56.90
2030;DHT22;1020;48.854;8.830;2023-07-09T13:34:42;39.50;58.70
2030;DHT22;1020;48.854;8.830;2023-07-09T13:37:12;40.30;59.50
2030;DHT22;1020;48.854;8.830;2023-07-09T13:39:39;40.60;58.60
2030;DHT22;1020;48.854;8.830;2023-07-09T13:42:10;40.40;56.90
2030;DHT22;1020;48.854;8.830;2023-07-09T13:44:39;39.60;54.30
2030;DHT22;1020;48.854;8.830;2023-07-09T13:47:14;39.70;56.70
2030;DHT22;1020;48.854;8.830;2023-07-09T13:49:42;40.90;59.50
2030;DHT22;1020;48.854;8.830;2023-07-09T13:52:15;41.90;59.60
2030;DHT22;1020;48.854;8.830;2023-07-09T13:54:42;41.00;55.60
2030;DHT22;1020;48.854;8.830;2023-07-09T13:57:17;40.70;59.60
2030;DHT22;1020;48.854;8.830;2023-07-09T13:59:45;40.00;54.10
2030;DHT22;1020;48.854;8.830;2023-07-09T14:02:24;40.30;54.70
2030;DHT22;1020;48.854;8.830;2023-07-09T14:04:57;40.40;54.80
2030;DHT22;1020;48.854;8.830;2023-07-09T14:07:27;40.70;54.40
2030;DHT22;1020;48.854;8.830;2023-07-09T14:09:53;40.30;52.40
2030;DHT22;1020;48.854;8.830;2023-07-09T14:12:20;38.90;49.70
2030;DHT22;1020;48.854;8.830;2023-07-09T14:14:49;38.80;49.90
2030;DHT22;1020;48.854;8.830;2023-07-09T14:17:16;37.40;46.10
2030;DHT22;1020;48.854;8.830;2023-07-09T14:19:44;37.20;46.80
2030;DHT22;1020;48.854;8.830;2023-07-09T14:22:25;37.10;45.80
2030;DHT22;1020;48.854;8.830;2023-07-09T14:24:54;37.10;45.00
2030;DHT22;1020;48.854;8.830;2023-07-09T14:27:21;37.00;43.30
2030;DHT22;1020;48.854;8.830;2023-07-09T14:29:47;37.10;43.30
2030;DHT22;1020;48.854;8.830;2023-07-09T14:32:35;37.90;45.70
2030;DHT22;1020;48.854;8.830;2023-07-09T14:35:11;38.60;46.20
2030;DHT22;1020;48.854;8.830;2023-07-09T14:37:38;38.50;44.00
2030;DHT22;1020;48.854;8.830;2023-07-09T14:40:06;37.70;40.20
2030;DHT22;1020;48.854;8.830;2023-07-09T14:42:33;37.70;39.90
2030;DHT22;1020;48.854;8.830;2023-07-09T14:45:00;37.80;39.90
2030;DHT22;1020;48.854;8.830;2023-07-09T14:47:27;37.70;39.60
2030;DHT22;1020;48.854;8.830;2023-07-09T14:49:54;37.50;49.10
2030;DHT22;1020;48.854;8.830;2023-07-09T14:52:22;37.80;39.40
2030;DHT22;1020;48.854;8.830;2023-07-09T14:54:49;38.50;52.40
2030;DHT22;1020;48.854;8.830;2023-07-09T14:57:21;39.20;41.60
2030;DHT22;1020;48.854;8.830;2023-07-09T14:59:49;39.20;40.70
2030;DHT22;1020;48.854;8.830;2023-07-09T15:02:30;39.40;40.00
2030;DHT22;1020;48.854;8.830;2023-07-09T15:04:58;38.60;36.60
2030;DHT22;1020;48.854;8.830;2023-07-09T15:07:26;38.70;36.50
2030;DHT22;1020;48.854;8.830;2023-07-09T15:09:55;38.80;36.80
2030;DHT22;1020;48.854;8.830;2023-07-09T15:12:26;38.80;36.00
2030;DHT22;1020;48.854;8.830;2023-07-09T15:14:57;39.00;35.70
2030;DHT22;1020;48.854;8.830;2023-07-09T15:17:24;39.00;35.30
2030;DHT22;1020;48.854;8.830;2023-07-09T15:19:51;39.30;35.60
2030;DHT22;1020;48.854;8.830;2023-07-09T15:22:27;39.00;33.40
2030;DHT22;1020;48.854;8.830;2023-07-09T15:24:56;38.60;32.30
2030;DHT22;1020;48.854;8.830;2023-07-09T15:27:22;38.20;31.40
2030;DHT22;1020;48.854;8.830;2023-07-09T15:29:49;37.90;30.60
2030;DHT22;1020;48.854;8.830;2023-07-09T15:32:16;37.80;31.30
2030;DHT22;1020;48.854;8.830;2023-07-09T15:34:43;37.90;31.40
2030;DHT22;1020;48.854;8.830;2023-07-09T15:37:12;38.10;33.30
2030;DHT22;1020;48.854;8.830;2023-07-09T15:39:41;38.50;34.00
2030;DHT22;1020;48.854;8.830;2023-07-09T15:42:11;38.90;34.70
2030;DHT22;1020;48.854;8.830;2023-07-09T15:44:38;39.10;35.10
2030;DHT22;1020;48.854;8.830;2023-07-09T15:47:08;38.80;32.90
2030;DHT22;1020;48.854;8.830;2023-07-09T15:49:40;38.30;31.60
2030;DHT22;1020;48.854;8.830;2023-07-09T15:52:07;38.10;32.00
2030;DHT22;1020;48.854;8.830;2023-07-09T15:54:34;37.50;30.90
2030;DHT22;1020;48.854;8.830;2023-07-09T15:57:03;37.10;30.80
2030;DHT22;1020;48.854;8.830;2023-07-09T15:59:32;36.70;31.00
2030;DHT22;1020;48.854;8.830;2023-07-09T16:02:00;36.40;31.80
2030;DHT22;1020;48.854;8.830;2023-07-09T16:04:28;36.60;34.40
2030;DHT22;1020;48.854;8.830;2023-07-09T16:06:58;36.60;35.60
2030;DHT22;1020;48.854;8.830;2023-07-09T16:09:25;36.60;36.40
2030;DHT22;1020;48.854;8.830;2023-07-09T16:11:53;36.50;38.10
2030;DHT22;1020;48.854;8.830;2023-07-09T16:14:24;36.20;37.10
2030;DHT22;1020;48.854;8.830;2023-07-09T16:16:53;36.10;39.00